createdAt,value
2017-08-14T00:00:35.612Z,89.50
2017-08-14T00:03:05.075Z,89.50
2017-08-14T00:05:32.563Z,89.40
2017-08-14T00:08:00.136Z,89.40
2017-08-14T00:10:27.622Z,89.20
2017-08-14T00:12:55.132Z,89.30
2017-08-14T00:15:22.618Z,89.40
2017-08-14T00:17:50.123Z,89.30
2017-08-14T00:20:18.010Z,89.10
2017-08-14T00:22:45.515Z,89.10
2017-08-14T00:25:12.997Z,89.00
2017-08-14T00:27:40.930Z,89.10
2017-08-14T00:30:08.421Z,89.10
2017-08-14T00:32:35.928Z,89.30
2017-08-14T00:35:03.454Z,89.40
2017-08-14T00:37:32.905Z,89.40
2017-08-14T00:40:00.395Z,89.40
2017-08-14T00:42:29.294Z,89.50
2017-08-14T00:44:57.179Z,89.70
2017-08-14T00:47:24.704Z,89.70
2017-08-14T00:49:52.195Z,89.80
2017-08-14T00:54:45.354Z,89.90
2017-08-14T00:57:12.866Z,90.20
2017-08-14T00:59:40.360Z,90.30
2017-08-14T01:02:08.254Z,90.20
2017-08-14T01:04:35.746Z,90.20
2017-08-14T01:07:03.266Z,90.20
2017-08-14T01:09:30.756Z,90.10
2017-08-14T01:11:58.263Z,90.20
2017-08-14T01:14:26.156Z,90.50
2017-08-14T01:16:53.657Z,90.50
2017-08-14T01:19:21.180Z,90.50
2017-08-14T01:21:48.711Z,90.40
2017-08-14T01:24:16.199Z,90.40
2017-08-14T01:26:43.696Z,90.40
2017-08-14T01:29:11.177Z,90.60
2017-08-14T01:31:40.628Z,90.60
2017-08-14T01:34:09.034Z,90.60
2017-08-14T01:36:36.515Z,90.70
2017-08-14T01:39:04.412Z,90.60
2017-08-14T01:41:31.898Z,90.60
2017-08-14T01:43:59.415Z,90.70
2017-08-14T01:46:26.903Z,90.70
2017-08-14T01:48:54.411Z,90.70
2017-08-14T01:51:22.295Z,90.70
2017-08-14T01:53:49.804Z,90.70
2017-08-14T01:56:17.315Z,90.80
2017-08-14T01:58:44.802Z,90.70
2017-08-14T02:01:12.306Z,90.80
2017-08-14T02:03:41.078Z,90.60
2017-08-14T02:06:08.590Z,90.60
2017-08-14T02:08:36.077Z,90.70
2017-08-14T02:11:03.560Z,90.70
2017-08-14T02:13:31.463Z,90.70
2017-08-14T02:15:58.948Z,90.70
2017-08-14T02:18:28.406Z,90.80
2017-08-14T02:20:55.888Z,90.70
2017-08-14T02:23:23.399Z,90.60
2017-08-14T02:25:51.279Z,90.50
2017-08-14T02:28:20.170Z,90.50
2017-08-14T02:30:47.650Z,90.60
2017-08-14T02:33:15.152Z,90.40
2017-08-14T02:35:42.632Z,90.50
2017-08-14T02:38:10.148Z,90.50
2017-08-14T02:40:37.627Z,90.50
2017-08-14T02:43:05.137Z,90.60
2017-08-14T02:45:32.627Z,90.60
2017-08-14T02:48:00.128Z,90.50
2017-08-14T02:50:27.615Z,90.60
2017-08-14T02:52:55.106Z,90.50
2017-08-14T02:55:23.518Z,90.60
2017-08-14T02:57:51.022Z,90.60
2017-08-14T03:00:18.498Z,90.60
2017-08-14T03:02:45.998Z,90.50
2017-08-14T03:05:13.510Z,90.60
2017-08-14T03:07:41.011Z,90.80
2017-08-14T03:10:08.524Z,90.80
2017-08-14T03:12:37.974Z,90.80
2017-08-14T03:15:05.471Z,90.80
2017-08-14T03:17:33.966Z,90.90
2017-08-14T03:20:01.463Z,90.90
2017-08-14T03:22:28.987Z,90.90
2017-08-14T03:24:56.479Z,90.80
2017-08-14T03:27:25.889Z,90.80
2017-08-14T03:29:53.374Z,90.60
2017-08-14T03:32:20.863Z,90.60
2017-08-14T03:34:48.361Z,90.70
2017-08-14T03:37:15.850Z,90.70
2017-08-14T03:39:43.342Z,90.80
2017-08-14T03:42:11.229Z,90.70
2017-08-14T03:44:38.717Z,90.60
2017-08-14T03:47:08.131Z,90.70
2017-08-14T03:49:35.615Z,90.70
2017-08-14T03:52:03.110Z,90.60
2017-08-14T03:54:30.585Z,90.80
2017-08-14T03:56:58.085Z,90.80
2017-08-14T03:59:26.507Z,90.70
2017-08-14T04:01:54.006Z,90.60
2017-08-14T04:04:21.490Z,90.60
2017-08-14T04:06:51.342Z,90.60
2017-08-14T04:09:18.848Z,90.60
2017-08-14T04:11:46.321Z,90.60
2017-08-14T04:14:14.215Z,90.60
2017-08-14T04:16:41.697Z,90.60
2017-08-14T04:19:09.188Z,90.50
2017-08-14T04:21:36.670Z,90.60
2017-08-14T04:24:04.562Z,90.60
2017-08-14T04:26:32.064Z,90.60
2017-08-14T04:28:59.554Z,90.60
2017-08-14T04:31:27.062Z,90.50
2017-08-14T04:33:55.459Z,90.60
2017-08-14T04:36:22.955Z,90.60
2017-08-14T04:38:50.427Z,90.50
2017-08-14T04:41:17.926Z,90.40
2017-08-14T04:43:45.414Z,90.40
2017-08-14T04:46:17.427Z,90.30
2017-08-14T04:48:44.914Z,90.40
2017-08-14T04:51:12.402Z,90.40
2017-08-14T04:53:39.878Z,90.40
2017-08-14T04:56:07.381Z,90.40
2017-08-14T04:58:34.874Z,90.50
2017-08-14T05:01:03.430Z,90.40
2017-08-14T05:03:31.339Z,90.30
2017-08-14T05:05:58.817Z,90.30
2017-08-14T05:08:26.342Z,90.20
2017-08-14T05:10:53.841Z,90.20
2017-08-14T05:13:21.318Z,90.20
2017-08-14T05:15:48.813Z,90.10
2017-08-14T05:18:16.303Z,90.10
2017-08-14T05:20:43.797Z,90.10
2017-08-14T05:23:11.665Z,89.90
2017-08-14T05:25:39.178Z,89.90
2017-08-14T05:28:08.602Z,89.90
2017-08-14T05:30:36.089Z,90.00
2017-08-14T05:33:03.558Z,90.10
2017-08-14T05:35:31.795Z,90.10
2017-08-14T05:37:59.278Z,90.20
2017-08-14T05:40:27.178Z,89.60
2017-08-14T05:42:54.650Z,89.60
2017-08-14T05:45:22.162Z,89.40
2017-08-14T05:47:49.647Z,89.10
2017-08-14T05:50:17.138Z,89.00
2017-08-14T05:52:44.609Z,88.90
2017-08-14T05:55:12.454Z,88.80
2017-08-14T05:57:39.941Z,88.70
2017-08-14T06:00:09.776Z,88.80
2017-08-14T06:02:37.253Z,88.80
2017-08-14T06:05:04.745Z,88.50
2017-08-14T06:07:32.228Z,88.50
2017-08-14T06:10:00.122Z,88.50
2017-08-14T06:12:27.602Z,88.50
2017-08-14T06:14:55.122Z,88.20
2017-08-14T06:17:22.999Z,88.10
2017-08-14T06:19:50.500Z,88.10
2017-08-14T06:22:17.979Z,88.00
2017-08-14T06:24:45.473Z,87.90
2017-08-14T06:27:13.898Z,87.70
2017-08-14T06:29:41.390Z,87.80
2017-08-14T06:32:08.870Z,88.00
2017-08-14T06:34:36.385Z,88.10
2017-08-14T06:37:03.881Z,88.00
2017-08-14T06:39:31.390Z,88.10
2017-08-14T06:41:58.870Z,87.80
2017-08-14T06:44:26.750Z,87.80
2017-08-14T06:46:54.246Z,87.80
2017-08-14T06:49:22.657Z,87.80
2017-08-14T06:51:50.149Z,88.00
2017-08-14T06:54:17.629Z,88.00
2017-08-14T06:56:45.139Z,87.50
2017-08-14T06:59:13.942Z,87.30
2017-08-14T07:01:41.814Z,87.30
2017-08-14T07:04:09.319Z,87.30
2017-08-14T07:06:36.799Z,87.40
2017-08-14T07:09:04.298Z,86.90
2017-08-14T07:11:31.778Z,86.90
2017-08-14T07:13:59.265Z,86.90
2017-08-14T07:16:28.695Z,87.00
2017-08-14T07:18:56.169Z,87.00
2017-08-14T07:21:23.673Z,86.50
2017-08-14T07:23:51.150Z,86.10
2017-08-14T07:26:18.655Z,85.90
2017-08-14T07:28:46.131Z,85.70
2017-08-14T07:31:13.622Z,85.80
2017-08-14T07:33:41.526Z,85.30
2017-08-14T07:36:09.011Z,85.30
2017-08-14T07:38:36.517Z,85.50
2017-08-14T07:41:04.039Z,85.70
2017-08-14T07:43:31.530Z,85.30
2017-08-14T07:45:59.017Z,84.90
2017-08-14T07:48:26.514Z,84.90
2017-08-14T07:50:54.010Z,84.10
2017-08-14T07:53:21.520Z,84.00
2017-08-14T07:55:48.994Z,83.80
2017-08-14T07:58:16.494Z,83.90
2017-08-14T08:00:43.986Z,83.20
2017-08-14T08:03:11.478Z,83.40
2017-08-14T08:05:39.003Z,83.80
2017-08-14T08:08:06.494Z,83.00
2017-08-14T08:10:34.382Z,82.90
2017-08-14T08:13:01.870Z,82.90
2017-08-14T08:15:29.394Z,83.10
2017-08-14T08:17:56.871Z,82.80
2017-08-14T08:20:24.386Z,83.10
2017-08-14T08:22:52.812Z,83.00
2017-08-14T08:25:20.321Z,83.20
2017-08-14T08:27:47.820Z,82.90
2017-08-14T08:30:15.298Z,82.40
2017-08-14T08:32:42.795Z,82.30
2017-08-14T08:35:10.666Z,82.40
2017-08-14T08:37:38.163Z,82.40
2017-08-14T08:40:05.685Z,81.90
2017-08-14T08:42:33.583Z,81.90
2017-08-14T08:45:01.058Z,81.90
2017-08-14T08:47:28.539Z,81.70
2017-08-14T08:49:56.061Z,81.00
2017-08-14T08:52:24.480Z,81.40
2017-08-14T08:54:51.978Z,80.90
2017-08-14T08:57:20.401Z,80.60
2017-08-14T08:59:47.920Z,80.60
2017-08-14T09:02:15.394Z,80.10
2017-08-14T09:04:42.902Z,80.00
2017-08-14T09:07:10.400Z,79.90
2017-08-14T09:09:37.898Z,80.30
2017-08-14T09:12:05.382Z,80.50
2017-08-14T09:14:33.274Z,80.10
2017-08-14T09:17:00.745Z,80.10
2017-08-14T09:19:28.247Z,79.90
2017-08-14T09:21:55.731Z,80.10
2017-08-14T09:24:25.546Z,79.70
2017-08-14T09:26:53.022Z,79.70
2017-08-14T09:29:20.522Z,80.00
2017-08-14T09:31:47.999Z,79.50
2017-08-14T09:34:15.498Z,79.80
2017-08-14T09:36:42.987Z,79.50
2017-08-14T09:39:10.486Z,79.90
2017-08-14T09:41:38.906Z,80.10
2017-08-14T09:44:06.418Z,79.60
2017-08-14T09:46:34.858Z,79.00
2017-08-14T09:49:02.355Z,79.40
2017-08-14T09:51:29.847Z,78.70
2017-08-14T09:53:57.347Z,79.10
2017-08-14T09:56:24.823Z,78.70
2017-08-14T09:58:52.737Z,78.40
2017-08-14T10:01:20.213Z,78.40
2017-08-14T10:03:47.715Z,79.10
2017-08-14T10:06:15.222Z,78.30
2017-08-14T10:08:42.733Z,78.40
2017-08-14T10:11:10.266Z,78.20
2017-08-14T10:13:38.161Z,78.00
2017-08-14T10:16:05.639Z,78.00
2017-08-14T10:18:33.139Z,78.00
2017-08-14T10:21:00.620Z,78.40
2017-08-14T10:23:28.128Z,78.50
2017-08-14T10:25:55.622Z,78.70
2017-08-14T10:28:23.511Z,78.70
2017-08-14T10:30:51.004Z,78.70
2017-08-14T10:33:18.519Z,78.50
2017-08-14T10:35:48.042Z,78.00
2017-08-14T10:38:15.530Z,77.50
2017-08-14T10:40:43.027Z,77.60
2017-08-14T10:43:10.920Z,77.60
2017-08-14T10:45:38.419Z,77.60
2017-08-14T10:48:05.916Z,78.00
2017-08-14T10:50:33.436Z,78.10
2017-08-14T10:53:02.869Z,77.70
2017-08-14T10:55:30.356Z,77.70
2017-08-14T10:57:57.844Z,77.50
2017-08-14T11:00:25.332Z,77.70
2017-08-14T11:02:53.230Z,76.90
2017-08-14T11:05:20.714Z,76.90
2017-08-14T11:07:48.223Z,76.60
2017-08-14T11:10:16.642Z,76.30
2017-08-14T11:12:44.146Z,76.70
2017-08-14T11:15:11.638Z,77.20
2017-08-14T11:17:39.152Z,77.10
2017-08-14T11:20:06.654Z,77.80
2017-08-14T11:22:35.066Z,76.90
2017-08-14T11:25:02.583Z,76.00
2017-08-14T11:27:30.070Z,76.30
2017-08-14T11:29:57.546Z,76.40
2017-08-14T11:32:25.043Z,76.00
2017-08-14T11:34:52.539Z,76.20
2017-08-14T11:37:20.030Z,76.40
2017-08-14T11:39:47.507Z,76.60
2017-08-14T11:42:15.390Z,74.90
2017-08-14T11:44:42.882Z,74.90
2017-08-14T11:47:11.296Z,75.10
2017-08-14T11:49:39.709Z,75.30
2017-08-14T11:52:07.187Z,75.30
2017-08-14T11:54:34.683Z,75.60
2017-08-14T11:57:02.192Z,76.00
2017-08-14T11:59:31.629Z,75.80
2017-08-14T12:01:59.107Z,75.50
2017-08-14T12:04:26.610Z,75.20
2017-08-14T12:06:54.087Z,75.50
2017-08-14T12:09:21.578Z,74.40
2017-08-14T12:11:49.045Z,74.80
2017-08-14T12:14:16.955Z,74.50
2017-08-14T12:16:44.443Z,74.50
2017-08-14T12:19:11.979Z,74.70
2017-08-14T12:21:39.467Z,74.50
2017-08-14T12:24:08.906Z,75.40
2017-08-14T12:26:36.390Z,74.80
2017-08-14T12:29:03.890Z,74.20
2017-08-14T12:31:31.358Z,74.70
2017-08-14T12:33:59.261Z,74.80
2017-08-14T12:36:26.791Z,74.80
2017-08-14T12:38:54.690Z,74.40
2017-08-14T12:41:22.179Z,74.40
2017-08-14T12:43:49.679Z,74.60
2017-08-14T12:46:17.145Z,73.80
2017-08-14T12:48:44.642Z,73.20
2017-08-14T12:51:12.129Z,73.20
2017-08-14T12:53:40.028Z,73.70
2017-08-14T12:56:07.511Z,73.70
2017-08-14T12:58:35.033Z,73.60
2017-08-14T13:01:03.515Z,74.40
2017-08-14T13:03:31.000Z,73.60
2017-08-14T13:05:58.490Z,73.60
2017-08-14T13:08:26.075Z,73.80
2017-08-14T13:10:54.780Z,74.00
2017-08-14T13:13:22.315Z,74.00
2017-08-14T13:15:51.103Z,74.50
2017-08-14T13:18:18.990Z,74.80
2017-08-14T13:20:46.466Z,74.80
2017-08-14T13:23:13.974Z,75.10
2017-08-14T13:25:41.837Z,73.90
2017-08-14T13:28:09.382Z,73.90
2017-08-14T13:30:36.854Z,74.60
2017-08-14T13:33:06.696Z,73.70
2017-08-14T13:35:34.198Z,73.70
2017-08-14T13:38:01.712Z,73.90
2017-08-14T13:40:29.206Z,73.50
2017-08-14T13:42:58.664Z,74.10
2017-08-14T13:45:27.181Z,74.20
2017-08-14T13:47:54.667Z,74.10
2017-08-14T13:50:22.166Z,74.50
2017-08-14T13:52:49.666Z,73.60
2017-08-14T13:55:17.159Z,74.60
2017-08-14T13:57:45.593Z,73.10
2017-08-14T14:00:13.090Z,73.20
2017-08-14T14:02:41.054Z,73.20
2017-08-14T14:05:10.490Z,73.20
2017-08-14T14:07:37.980Z,73.50
2017-08-14T14:10:05.484Z,73.20
2017-08-14T14:12:32.962Z,71.60
2017-08-14T14:15:00.472Z,71.60
2017-08-14T14:17:27.958Z,71.90
2017-08-14T14:19:56.802Z,73.30
2017-08-14T14:22:24.302Z,73.30
2017-08-14T14:24:52.165Z,71.90
2017-08-14T14:27:20.055Z,71.60
2017-08-14T14:29:47.538Z,71.60
2017-08-14T14:32:15.042Z,72.50
2017-08-14T14:34:43.806Z,71.90
2017-08-14T14:37:11.299Z,71.90
2017-08-14T14:39:38.782Z,72.10
2017-08-14T14:42:06.266Z,72.20
2017-08-14T14:44:34.723Z,71.60
2017-08-14T14:47:02.262Z,73.10
2017-08-14T14:49:30.678Z,72.30
2017-08-14T14:51:58.159Z,71.40
2017-08-14T14:54:25.634Z,71.60
2017-08-14T14:56:55.054Z,71.50
2017-08-14T14:59:22.559Z,71.90
2017-08-14T15:01:50.062Z,72.80
2017-08-14T15:04:17.544Z,72.30
2017-08-14T15:06:45.034Z,72.90
2017-08-14T15:09:12.502Z,73.70
2017-08-14T15:11:39.990Z,74.20
2017-08-14T15:14:07.464Z,73.90
2017-08-14T15:16:36.916Z,74.20
2017-08-14T15:19:04.395Z,73.70
2017-08-14T15:21:32.297Z,72.30
2017-08-14T15:24:00.722Z,72.30
2017-08-14T15:26:28.222Z,71.80
2017-08-14T15:28:55.693Z,71.50
2017-08-14T15:31:23.191Z,71.30
2017-08-14T15:33:50.679Z,71.20
2017-08-14T15:36:18.177Z,71.70
2017-08-14T15:38:45.706Z,72.80
2017-08-14T15:41:13.250Z,73.00
2017-08-14T15:43:41.231Z,72.20
2017-08-14T15:46:08.777Z,72.20
2017-08-14T15:48:36.646Z,71.90
2017-08-14T15:51:05.139Z,71.90
2017-08-14T15:53:32.630Z,72.50
2017-08-14T15:56:02.073Z,74.50
2017-08-14T15:58:29.574Z,73.60
2017-08-14T16:00:57.101Z,72.70
2017-08-14T16:03:24.582Z,72.20
2017-08-14T16:05:52.071Z,71.70
2017-08-14T16:08:19.546Z,71.80
2017-08-14T16:10:47.768Z,72.40
2017-08-14T16:13:15.705Z,72.10
2017-08-14T16:15:43.614Z,72.30
2017-08-14T16:18:11.099Z,72.30
2017-08-14T16:20:38.590Z,71.60
2017-08-14T16:23:07.034Z,71.40
2017-08-14T16:25:34.543Z,71.00
2017-08-14T16:28:02.028Z,72.30
2017-08-14T16:30:29.543Z,72.40
2017-08-14T16:32:57.414Z,72.30
2017-08-14T16:35:24.930Z,72.30
2017-08-14T16:37:52.579Z,72.50
2017-08-14T16:40:20.089Z,72.00
2017-08-14T16:42:47.606Z,72.70
2017-08-14T16:45:15.107Z,74.90
2017-08-14T16:47:42.589Z,71.90
2017-08-14T16:50:10.087Z,72.10
2017-08-14T16:52:37.587Z,72.80
2017-08-14T16:55:05.242Z,72.00
2017-08-14T16:57:32.764Z,72.40
2017-08-14T17:00:00.242Z,73.50
2017-08-14T17:02:29.687Z,74.00
2017-08-14T17:04:57.162Z,74.40
2017-08-14T17:07:24.718Z,74.60
2017-08-14T17:09:52.213Z,74.10
2017-08-14T17:12:19.711Z,75.00
2017-08-14T17:14:47.190Z,75.80
2017-08-14T17:17:14.686Z,74.30
2017-08-14T17:19:42.158Z,72.90
2017-08-14T17:22:09.658Z,73.50
2017-08-14T17:24:37.162Z,72.90
2017-08-14T17:27:05.049Z,72.80
2017-08-14T17:29:32.532Z,72.80
2017-08-14T17:32:00.026Z,73.40
2017-08-14T17:34:28.441Z,73.30
2017-08-14T17:36:55.973Z,73.60
2017-08-14T17:39:23.850Z,73.60
2017-08-14T17:41:51.355Z,73.60
2017-08-14T17:44:18.873Z,73.70
2017-08-14T17:46:46.374Z,73.80
2017-08-14T17:49:13.894Z,74.10
2017-08-14T17:51:41.383Z,74.40
2017-08-14T17:54:09.806Z,74.50
2017-08-14T17:56:39.541Z,74.90
2017-08-14T17:59:08.033Z,74.90
2017-08-14T18:01:35.529Z,75.40
2017-08-14T18:04:03.070Z,75.80
2017-08-14T18:06:30.630Z,76.00
2017-08-14T18:08:59.163Z,76.40
2017-08-14T18:11:27.751Z,76.50
2017-08-14T18:13:55.910Z,77.00
2017-08-14T18:16:23.910Z,78.10
2017-08-14T18:18:52.787Z,78.10
2017-08-14T18:21:20.317Z,78.70
2017-08-14T18:23:47.968Z,79.70
2017-08-14T18:26:15.570Z,80.20
2017-08-14T18:28:43.767Z,80.10
2017-08-14T18:31:11.351Z,80.50
2017-08-14T18:33:38.893Z,80.60
2017-08-14T18:36:07.667Z,80.90
2017-08-14T18:38:47.503Z,81.20
2017-08-14T18:41:17.685Z,81.30
2017-08-14T18:43:47.106Z,81.80
2017-08-14T18:46:15.959Z,82.00
2017-08-14T18:48:43.621Z,82.20
2017-08-14T18:51:11.439Z,82.40
2017-08-14T18:53:39.814Z,82.80
2017-08-14T18:58:41.347Z,83.50
2017-08-14T19:01:09.411Z,84.10
2017-08-14T19:03:38.122Z,84.10
2017-08-14T19:06:05.854Z,84.20
2017-08-14T19:08:35.102Z,84.40
2017-08-14T19:11:00.942Z,84.40
2017-08-14T19:13:28.493Z,84.60
2017-08-14T19:15:56.045Z,84.80
2017-08-14T19:18:23.587Z,85.00
2017-08-14T19:20:51.129Z,85.20
2017-08-14T19:23:18.756Z,85.10
2017-08-14T19:25:46.415Z,85.40
2017-08-14T19:28:14.066Z,85.60
2017-08-14T19:30:41.626Z,85.90
2017-08-14T19:33:09.270Z,86.20
2017-08-14T19:35:36.893Z,86.50
2017-08-14T19:38:04.434Z,86.80
2017-08-14T19:40:32.029Z,87.20
2017-08-14T19:42:59.625Z,87.60
2017-08-14T19:45:27.267Z,87.40
2017-08-14T19:47:54.792Z,87.70
2017-08-14T19:50:22.339Z,88.10
2017-08-14T19:52:49.935Z,88.30
2017-08-14T19:55:17.609Z,88.60
2017-08-14T19:57:46.928Z,88.90
2017-08-14T20:00:15.370Z,89.10
2017-08-14T20:02:44.935Z,89.40
2017-08-14T20:07:54.776Z,89.80
2017-08-14T20:10:22.366Z,89.80
2017-08-14T20:12:49.974Z,90.00
2017-08-14T20:15:18.260Z,89.70
2017-08-14T20:17:46.746Z,90.50
2017-08-14T20:20:15.120Z,90.20
2017-08-14T20:22:42.754Z,90.40
2017-08-14T20:25:14.041Z,91.00
2017-08-14T20:27:42.177Z,91.30
2017-08-14T20:30:11.327Z,91.40
2017-08-14T20:32:38.989Z,91.60
2017-08-14T20:35:06.575Z,92.00
2017-08-14T20:37:38.884Z,91.60
2017-08-14T20:40:07.705Z,91.50
2017-08-14T20:42:36.495Z,91.70
2017-08-14T20:45:04.496Z,91.70
2017-08-14T20:47:32.086Z,91.50
2017-08-14T20:49:59.692Z,91.40
2017-08-14T20:52:27.366Z,91.60
2017-08-14T20:54:54.983Z,91.70
2017-08-14T20:57:22.649Z,91.70
2017-08-14T20:59:52.168Z,92.00
2017-08-14T21:02:21.201Z,92.50
2017-08-14T21:04:51.447Z,92.50
2017-08-14T21:07:19.025Z,92.20
2017-08-14T21:09:46.708Z,92.10
2017-08-14T21:12:15.678Z,92.40
2017-08-14T21:14:43.254Z,92.40
2017-08-14T21:17:11.826Z,92.60
2017-08-14T21:19:39.880Z,92.60
2017-08-14T21:22:07.861Z,92.60
2017-08-14T21:24:35.420Z,92.60
2017-08-14T21:27:02.981Z,92.60
2017-08-14T21:29:30.612Z,93.00
2017-08-14T21:31:58.278Z,93.40
2017-08-14T21:34:27.897Z,93.00
2017-08-14T21:36:57.474Z,92.80
2017-08-14T21:39:25.010Z,93.10
2017-08-14T21:41:52.557Z,93.20
2017-08-14T21:44:20.108Z,93.30
2017-08-14T21:46:48.138Z,93.50
2017-08-14T21:49:16.385Z,93.50
2017-08-14T21:51:43.946Z,93.60
2017-08-14T21:54:11.459Z,93.00
2017-08-14T21:56:39.032Z,93.20
2017-08-14T21:59:08.874Z,93.10
2017-08-14T22:01:36.448Z,93.10
2017-08-14T22:04:04.038Z,93.30
2017-08-14T22:06:32.749Z,93.10
2017-08-14T22:09:00.377Z,93.10
2017-08-14T22:11:27.951Z,93.40
2017-08-14T22:13:55.529Z,93.40
2017-08-14T22:16:25.143Z,93.40
2017-08-14T22:18:52.714Z,93.80
2017-08-14T22:21:21.272Z,93.80
2017-08-14T22:23:49.719Z,94.00
2017-08-14T22:26:17.296Z,94.00
2017-08-14T22:28:44.944Z,93.80
2017-08-14T22:31:13.546Z,93.50
2017-08-14T22:33:41.587Z,93.50
2017-08-14T22:36:09.209Z,93.50
2017-08-14T22:38:36.767Z,93.20
2017-08-14T22:41:04.307Z,93.30
2017-08-14T22:43:31.853Z,93.20
2017-08-14T22:45:59.850Z,93.90
2017-08-14T22:48:27.476Z,93.90
2017-08-14T22:50:55.412Z,94.10
2017-08-14T22:53:22.961Z,94.10
2017-08-14T22:55:50.505Z,94.40
2017-08-14T22:58:18.094Z,94.30
2017-08-14T23:00:45.728Z,94.20
2017-08-14T23:03:13.399Z,94.40
2017-08-14T23:05:42.243Z,94.10
2017-08-14T23:08:09.847Z,94.10
2017-08-14T23:10:37.386Z,94.30
2017-08-14T23:13:04.870Z,94.50
2017-08-14T23:15:32.378Z,94.50
2017-08-14T23:17:59.868Z,94.70
2017-08-14T23:20:27.356Z,94.90
2017-08-14T23:22:58.250Z,95.00
2017-08-14T23:25:25.752Z,95.10
2017-08-14T23:27:53.266Z,95.30
2017-08-14T23:30:20.755Z,95.30
2017-08-14T23:32:48.234Z,95.30
2017-08-14T23:35:15.725Z,95.30
2017-08-14T23:37:43.226Z,95.10
2017-08-14T23:40:10.717Z,95.20
2017-08-14T23:42:38.219Z,95.20
2017-08-14T23:45:05.712Z,95.30
2017-08-14T23:47:33.210Z,95.60
2017-08-14T23:50:01.634Z,95.70
2017-08-14T23:52:29.130Z,95.80
2017-08-14T23:54:57.014Z,96.20
2017-08-14T23:57:24.915Z,96.30
2017-08-14T23:59:52.402Z,96.20
